Time;durP1;ratioP1;P1;durP2;ratioP2;P2;SDS_P1;SDS_P2;PMS_P1;PMS_P2;Temp;Humidity;BMP_temperature;BMP_pressure;BME280_temperature;BME280_humidity;BME280_pressure;Samples;Min_cycle;Max_cycle;Signal;HPM_P1;HPM_P2
2021/09/09 00:00:30;;;;;;;;;;;;;;;23.52;57.20;100856.44;5035048;28;982;-63
2021/09/09 00:02:55;;;;;;;;;;;;;;;23.48;56.93;100855.09;5034816;28;846;-62
2021/09/09 00:05:20;;;;;;;;;;;;;;;23.47;57.26;100853.38;5035040;28;990;-65
2021/09/09 00:07:45;;;;;;;;;;;;;;;23.46;57.10;100847.13;5035198;28;998;-67
2021/09/09 00:10:10;;;;;;;;;;;;;;;23.46;57.49;100835.41;5035069;28;867;-67
2021/09/09 00:12:35;;;;;;;;;;;;;;;23.45;57.13;100833.72;5035275;28;1886;-63
2021/09/09 00:15:00;;;;;;;;;;;;;;;23.39;57.49;100838.00;5037764;28;1657;-64
2021/09/09 00:17:25;;;;;;;;;;;;;;;23.40;57.28;100836.13;5046291;28;1760;-63
2021/09/09 00:19:50;;;;;;;;;;;;;;;23.39;57.42;100829.84;5053262;28;1706;-63
2021/09/09 00:22:16;;;;;;;;;;;;;;;23.39;57.10;100824.41;5054822;28;1060;-63
2021/09/09 00:24:41;;;;;;;;;;;;;;;23.35;57.13;100827.66;5054583;28;977;-64
2021/09/09 00:27:06;;;;;;;;;;;;;;;23.35;57.05;100830.38;5054361;28;1346;-64
2021/09/09 00:29:31;;;;;;;;;;;;;;;23.36;57.31;100818.47;5054614;28;899;-63
2021/09/09 00:31:56;;;;;;;;;;;;;;;23.35;57.18;100811.34;5049149;28;1691;-64
2021/09/09 00:34:21;;;;;;;;;;;;;;;23.30;57.24;100809.16;5034593;28;1968;-64
2021/09/09 00:36:46;;;;;;;;;;;;;;;23.28;57.40;100804.97;5034745;28;958;-64
2021/09/09 00:39:11;;;;;;;;;;;;;;;23.29;57.09;100804.75;5034767;28;812;-66
2021/09/09 00:41:36;;;;;;;;;;;;;;;23.23;57.46;100801.94;5034705;28;1005;-66
2021/09/09 00:44:01;;;;;;;;;;;;;;;23.22;57.18;100800.25;5034754;28;894;-66
2021/09/09 00:46:26;;;;;;;;;;;;;;;23.25;57.46;100805.34;5034487;28;858;-66
2021/09/09 00:48:52;;;;;;;;;;;;;;;23.27;57.46;100804.13;5039714;28;1855;-66
2021/09/09 00:51:17;;;;;;;;;;;;;;;23.27;57.52;100803.28;5054703;28;1009;-65
2021/09/09 00:53:42;;;;;;;;;;;;;;;23.30;57.19;100802.88;5054587;28;1961;-64
2021/09/09 00:56:07;;;;;;;;;;;;;;;23.27;57.08;100803.28;5054556;28;839;-65
2021/09/09 00:58:32;;;;;;;;;;;;;;;23.27;57.05;100800.56;5056208;28;827;-64
2021/09/09 01:00:57;;;;;;;;;;;;;;;23.28;57.45;100802.25;5058527;28;1057;-64
2021/09/09 01:03:22;;;;;;;;;;;;;;;23.26;57.53;100801.59;5058118;28;918;-65
2021/09/09 01:05:47;;;;;;;;;;;;;;;23.25;57.43;100794.44;5052114;28;1634;-64
2021/09/09 01:08:12;;;;;;;;;;;;;;;23.23;57.55;100788.34;5038245;28;1013;-65
2021/09/09 01:10:37;;;;;;;;;;;;;;;23.23;57.28;100797.34;5038172;28;828;-62
2021/09/09 01:13:03;;;;;;;;;;;;;;;23.22;57.51;100798.38;5038245;28;1894;-61
2021/09/09 01:15:28;;;;;;;;;;;;;;;23.22;57.36;100789.38;5038054;28;1010;-61
2021/09/09 01:17:53;;;;;;;;;;;;;;;23.20;57.39;100782.25;5037960;28;997;-64
2021/09/09 01:20:18;;;;;;;;;;;;;;;23.19;57.66;100782.44;5038491;28;915;-63
2021/09/09 01:22:43;;;;;;;;;;;;;;;23.18;57.18;100778.84;5045644;28;1908;-64
2021/09/09 01:25:08;;;;;;;;;;;;;;;23.18;57.57;100781.56;5057514;28;1923;-63
2021/09/09 01:27:33;;;;;;;;;;;;;;;23.17;57.64;100785.31;5056249;28;1566;-63
2021/09/09 01:29:58;;;;;;;;;;;;;;;23.17;57.51;100781.75;5057808;28;934;-63
2021/09/09 01:32:23;;;;;;;;;;;;;;;23.14;57.58;100774.81;5058097;28;997;-63
2021/09/09 01:34:49;;;;;;;;;;;;;;;23.13;57.73;100775.84;5057904;28;1969;-62
2021/09/09 01:37:14;;;;;;;;;;;;;;;23.14;57.63;100776.69;5057830;28;828;-62
2021/09/09 01:39:39;;;;;;;;;;;;;;;23.12;57.41;100763.28;5051920;28;1832;-62
2021/09/09 01:42:04;;;;;;;;;;;;;;;23.11;57.63;100766.19;5037711;28;1851;-63
2021/09/09 01:44:29;;;;;;;;;;;;;;;23.09;57.68;100763.66;5037623;28;1112;-63
2021/09/09 01:46:54;;;;;;;;;;;;;;;23.09;57.68;100765.53;5037571;28;862;-63
2021/09/09 01:49:19;;;;;;;;;;;;;;;23.09;57.58;100763.66;5038204;28;1041;-62
2021/09/09 01:51:44;;;;;;;;;;;;;;;23.07;57.71;100754.84;5037481;28;930;-63
2021/09/09 01:54:09;;;;;;;;;;;;;;;23.07;57.28;100749.41;5037264;28;1894;-64
2021/09/09 01:56:35;;;;;;;;;;;;;;;23.06;57.58;100752.31;5043740;28;1807;-64
2021/09/09 01:59:00;;;;;;;;;;;;;;;23.05;57.72;100758.75;5057834;28;886;-64
2021/09/09 02:01:25;;;;;;;;;;;;;;;23.03;57.77;100753.50;5057108;28;926;-64
2021/09/09 02:03:50;;;;;;;;;;;;;;;23.04;57.74;100752.47;5057061;28;894;-64
2021/09/09 02:06:15;;;;;;;;;;;;;;;23.04;57.50;100751.63;5057010;28;1873;-64
2021/09/09 02:08:40;;;;;;;;;;;;;;;23.01;57.77;100747.41;5057060;28;911;-65
2021/09/09 02:11:05;;;;;;;;;;;;;;;23.00;57.53;100743.00;5057228;28;803;-64
2021/09/09 02:13:30;;;;;;;;;;;;;;;23.00;57.47;100753.03;5050145;28;1947;-64
2021/09/09 02:15:55;;;;;;;;;;;;;;;22.99;57.25;100752.19;5037414;28;1724;-64
2021/09/09 02:18:20;;;;;;;;;;;;;;;22.98;57.71;100752.34;5037698;28;936;-65
2021/09/09 02:20:45;;;;;;;;;;;;;;;22.98;57.76;100753.19;5037302;28;997;-66
2021/09/09 02:23:10;;;;;;;;;;;;;;;22.96;57.56;100760.69;5037512;28;1986;-65
2021/09/09 02:25:38;;;;;;;;;;;;;;;22.95;57.72;100764.44;5037567;28;1448;-65
2021/09/09 02:28:03;;;;;;;;;;;;;;;22.93;57.51;100763.75;5016037;28;1264;-63
2021/09/09 02:30:28;;;;;;;;;;;;;;;22.93;57.46;100754.78;5017898;28;1902;-63
2021/09/09 02:32:53;;;;;;;;;;;;;;;22.92;57.69;100758.53;5021284;28;1924;-64
2021/09/09 02:35:18;;;;;;;;;;;;;;;22.91;57.46;100763.13;5036897;28;940;-63
2021/09/09 02:37:43;;;;;;;;;;;;;;;22.88;57.66;100760.78;5037019;28;839;-63
2021/09/09 02:40:09;;;;;;;;;;;;;;;22.88;57.45;100760.78;5037444;28;1143;-66
2021/09/09 02:42:34;;;;;;;;;;;;;;;22.86;57.31;100768.25;5036623;28;817;-66
2021/09/09 02:44:59;;;;;;;;;;;;;;;22.85;57.57;100755.69;5036680;28;835;-65
2021/09/09 02:47:24;;;;;;;;;;;;;;;22.85;57.69;100763.84;5036352;28;1876;-65
2021/09/09 02:49:50;;;;;;;;;;;;;;;22.83;57.41;100757.75;5037110;28;966;-65
2021/09/09 02:52:15;;;;;;;;;;;;;;;22.84;57.52;100754.00;5036750;28;933;-65
2021/09/09 02:54:40;;;;;;;;;;;;;;;22.83;57.48;100750.44;5036801;28;1890;-65
2021/09/09 02:57:05;;;;;;;;;;;;;;;22.84;57.43;100748.56;5036924;28;911;-65
2021/09/09 02:59:30;;;;;;;;;;;;;;;22.84;57.22;100754.00;5036806;28;886;-63
2021/09/09 03:01:55;;;;;;;;;;;;;;;22.81;57.31;100749.78;5036664;28;1061;-63
2021/09/09 03:04:20;;;;;;;;;;;;;;;22.79;57.45;100757.25;5033097;28;1905;-64
2021/09/09 03:06:45;;;;;;;;;;;;;;;22.80;57.28;100747.22;5016288;28;816;-64
2021/09/09 03:09:10;;;;;;;;;;;;;;;22.78;57.27;100741.13;5016616;28;1006;-66
2021/09/09 03:11:35;;;;;;;;;;;;;;;22.78;57.25;100732.97;5016349;28;1049;-63
2021/09/09 03:14:00;;;;;;;;;;;;;;;22.76;57.30;100727.69;5016879;28;1922;-63
2021/09/09 03:16:25;;;;;;;;;;;;;;;22.75;57.25;100730.63;5016139;28;1017;-64
2021/09/09 03:18:50;;;;;;;;;;;;;;;22.76;57.30;100735.00;5016903;28;1053;-64
2021/09/09 03:21:15;;;;;;;;;;;;;;;22.75;57.26;100727.91;5016015;28;2002;-63
2021/09/09 03:23:40;;;;;;;;;;;;;;;22.72;57.49;100723.66;5016642;28;808;-64
2021/09/09 03:26:06;;;;;;;;;;;;;;;22.73;57.42;100713.66;5016470;28;994;-64
2021/09/09 03:28:31;;;;;;;;;;;;;;;22.70;57.22;100708.56;5015084;28;1479;-64
2021/09/09 03:30:56;;;;;;;;;;;;;;;22.70;57.34;100719.44;5016433;28;816;-63
2021/09/09 03:33:21;;;;;;;;;;;;;;;22.66;57.24;100707.25;5015832;28;1922;-64
2021/09/09 03:35:46;;;;;;;;;;;;;;;22.61;57.42;100704.22;5016517;28;942;-63
2021/09/09 03:38:11;;;;;;;;;;;;;;;22.60;57.51;100707.94;5016574;28;1970;-63
2021/09/09 03:40:36;;;;;;;;;;;;;;;22.58;57.17;100710.00;5023148;28;1871;-63
2021/09/09 03:43:01;;;;;;;;;;;;;;;22.59;57.44;100703.53;5033900;28;1974;-63
2021/09/09 03:45:26;;;;;;;;;;;;;;;22.58;57.23;100710.00;5035444;28;1009;-63
2021/09/09 03:47:51;;;;;;;;;;;;;;;22.59;57.45;100707.09;5035626;28;839;-66
2021/09/09 03:50:16;;;;;;;;;;;;;;;22.59;57.20;100706.25;5035956;28;908;-65
2021/09/09 03:52:41;;;;;;;;;;;;;;;22.59;57.47;100706.25;5036015;28;1886;-66
2021/09/09 03:55:07;;;;;;;;;;;;;;;22.58;57.26;100699.13;5017669;28;1879;-65
2021/09/09 03:57:32;;;;;;;;;;;;;;;22.57;57.25;100698.31;5015633;28;931;-65
2021/09/09 03:59:57;;;;;;;;;;;;;;;22.57;57.36;100695.59;5016100;28;2025;-65
2021/09/09 04:02:22;;;;;;;;;;;;;;;22.55;57.38;100700.38;5015534;28;1245;-65
2021/09/09 04:04:48;;;;;;;;;;;;;;;22.55;57.23;100704.94;5015587;28;1057;-65
2021/09/09 04:07:13;;;;;;;;;;;;;;;22.51;57.33;100699.88;5015676;28;907;-65
2021/09/09 04:09:38;;;;;;;;;;;;;;;22.42;57.38;100703.66;5015778;28;954;-65
2021/09/09 04:12:03;;;;;;;;;;;;;;;22.41;57.26;100695.69;5015994;28;2007;-65
2021/09/09 04:14:28;;;;;;;;;;;;;;;22.44;57.26;100706.19;5015356;28;1918;-63
2021/09/09 04:16:53;;;;;;;;;;;;;;;22.44;57.37;100696.19;5015365;28;933;-64
2021/09/09 04:19:19;;;;;;;;;;;;;;;22.42;57.29;100689.22;5015608;28;998;-63
2021/09/09 04:21:44;;;;;;;;;;;;;;;22.41;57.19;100691.09;5015238;28;839;-64
2021/09/09 04:24:09;;;;;;;;;;;;;;;22.40;57.29;100694.84;5015337;28;1004;-64
2021/09/09 04:26:35;;;;;;;;;;;;;;;22.35;57.00;100700.00;5016100;28;1996;-64
2021/09/09 04:29:00;;;;;;;;;;;;;;;22.36;57.06;100698.13;5055146;28;931;-64
2021/09/09 04:31:25;;;;;;;;;;;;;;;22.31;57.16;100690.50;5043080;28;1736;-66
2021/09/09 04:33:50;;;;;;;;;;;;;;;22.31;57.27;100687.78;5035362;28;1914;-65
2021/09/09 04:36:15;;;;;;;;;;;;;;;22.29;57.10;100689.84;5035006;28;1321;-65
2021/09/09 04:38:40;;;;;;;;;;;;;;;22.30;57.17;100688.81;5035055;28;913;-65
2021/09/09 04:41:05;;;;;;;;;;;;;;;22.32;57.08;100675.91;5043686;28;1820;-66
2021/09/09 04:43:30;;;;;;;;;;;;;;;22.33;57.14;100680.31;5055092;28;1640;-67
2021/09/09 04:45:55;;;;;;;;;;;;;;;22.31;57.16;100682.38;5036548;28;1895;-66
2021/09/09 04:48:20;;;;;;;;;;;;;;;22.31;57.02;100682.38;5034897;28;1908;-64
2021/09/09 04:50:45;;;;;;;;;;;;;;;22.30;57.61;100680.66;5039469;28;1753;-65
2021/09/09 04:53:10;;;;;;;;;;;;;;;22.40;57.43;100675.00;5035032;28;1947;-66
2021/09/09 04:55:36;;;;;;;;;;;;;;;22.50;59.45;100671.03;5034789;28;822;-64
2021/09/09 04:58:01;;;;;;;;;;;;;;;22.52;59.69;100674.41;5035050;28;918;-65
2021/09/09 05:00:26;;;;;;;;;;;;;;;22.57;58.87;100679.31;5035795;28;1969;-62
2021/09/09 05:02:51;;;;;;;;;;;;;;;22.57;60.34;100678.47;5017208;28;2718;-63
2021/09/09 05:05:16;;;;;;;;;;;;;;;22.51;61.32;100672.72;5034448;28;834;-68
2021/09/09 05:07:41;;;;;;;;;;;;;;;22.49;62.14;100669.34;5052372;28;1238;-67
2021/09/09 05:10:06;;;;;;;;;;;;;;;22.51;60.99;100674.59;5054211;28;1716;-67
2021/09/09 05:12:31;;;;;;;;;;;;;;;22.50;61.07;100671.03;5045429;28;1765;-67
2021/09/09 05:14:56;;;;;;;;;;;;;;;22.49;60.79;100677.47;5046149;28;1957;-67
2021/09/09 05:17:21;;;;;;;;;;;;;;;22.49;60.67;100669.34;5043111;28;1745;-67
2021/09/09 05:19:47;;;;;;;;;;;;;;;22.51;60.37;100667.28;5043811;28;1530;-68
2021/09/09 05:22:12;;;;;;;;;;;;;;;22.52;60.35;100668.13;5039174;28;2123;-68
2021/09/09 05:24:37;;;;;;;;;;;;;;;22.50;60.13;100671.03;5043478;28;1588;-68
2021/09/09 05:27:02;;;;;;;;;;;;;;;22.51;60.08;100667.28;5044047;28;1703;-68
2021/09/09 05:29:27;;;;;;;;;;;;;;;22.49;59.68;100671.22;5045809;28;1825;-67
2021/09/09 05:31:52;;;;;;;;;;;;;;;22.51;59.48;100675.44;5040719;28;1750;-68
2021/09/09 05:34:17;;;;;;;;;;;;;;;22.50;59.41;100665.59;5050745;28;1965;-68
2021/09/09 05:36:42;;;;;;;;;;;;;;;22.51;59.36;100671.88;5051259;28;1633;-68
2021/09/09 05:39:07;;;;;;;;;;;;;;;22.50;59.21;100676.47;5043290;28;1635;-68
2021/09/09 05:41:32;;;;;;;;;;;;;;;22.49;59.15;100680.19;5039977;28;1827;-68
2021/09/09 05:43:57;;;;;;;;;;;;;;;22.51;58.92;100667.28;5046339;28;1768;-68
2021/09/09 05:46:22;;;;;;;;;;;;;;;22.55;58.69;100661.50;5045928;28;1795;-68
2021/09/09 05:48:47;;;;;;;;;;;;;;;22.57;58.93;100664.88;5040260;28;1807;-67
2021/09/09 05:51:13;;;;;;;;;;;;;;;22.62;58.41;100657.00;5039143;28;1716;-68
2021/09/09 05:53:38;;;;;;;;;;;;;;;22.62;58.29;100657.84;5057051;28;1899;-67
2021/09/09 05:56:03;;;;;;;;;;;;;;;22.64;58.26;100658.53;5057308;28;831;-68
2021/09/09 05:58:28;;;;;;;;;;;;;;;22.60;58.33;100650.91;5057387;28;1061;-67
2021/09/09 06:00:53;;;;;;;;;;;;;;;22.64;58.16;100654.97;5057377;28;977;-67
2021/09/09 06:03:18;;;;;;;;;;;;;;;22.65;58.16;100659.38;5057798;28;1214;-68
2021/09/09 06:05:43;;;;;;;;;;;;;;;22.68;58.06;100650.84;5055490;28;1951;-68
2021/09/09 06:08:08;;;;;;;;;;;;;;;22.68;58.09;100656.28;5042732;28;1387;-67
2021/09/09 06:10:33;;;;;;;;;;;;;;;22.68;58.00;100650.84;5037101;28;1002;-68
2021/09/09 06:12:58;;;;;;;;;;;;;;;;;;5036984;28;1893;-67
2021/09/09 06:15:23;;;;;;;;;;;;;;;22.72;57.64;100646.75;5037732;28;1774;-68
2021/09/09 06:17:48;;;;;;;;;;;;;;;22.76;57.65;100648.91;5037762;28;934;-68
2021/09/09 06:20:15;;;;;;;;;;;;;;;22.75;57.35;100649.09;5037191;28;1167;-68
2021/09/09 06:22:40;;;;;;;;;;;;;;;22.70;57.45;100654.25;5019600;28;1901;-68
2021/09/09 06:25:05;;;;;;;;;;;;;;;22.76;57.46;100648.06;5054260;28;1867;-68
2021/09/09 06:27:30;;;;;;;;;;;;;;;22.79;57.54;100654.00;5055232;28;1443;-68
2021/09/09 06:29:55;;;;;;;;;;;;;;;22.77;57.67;100660.63;5056811;28;1195;-68
2021/09/09 06:32:20;;;;;;;;;;;;;;;22.76;57.46;100656.19;5046013;28;1157;-68
2021/09/09 06:34:45;;;;;;;;;;;;;;;22.83;56.96;100643.63;5037190;28;1906;-68
2021/09/09 06:37:10;;;;;;;;;;;;;;;22.85;57.16;100647.84;5042842;28;1267;-69
2021/09/09 06:39:35;;;;;;;;;;;;;;;22.89;58.22;100653.75;5049375;28;1600;-69
2021/09/09 06:42:00;;;;;;;;;;;;;;;22.92;57.50;100639.81;5040250;28;1878;-69
2021/09/09 06:44:25;;;;;;;;;;;;;;;22.96;57.61;100646.53;5036533;28;969;-69
2021/09/09 06:46:50;;;;;;;;;;;;;;;23.00;57.81;100642.44;5036694;28;942;-69
2021/09/09 06:49:16;;;;;;;;;;;;;;;23.07;57.83;100647.97;5036448;28;906;-68
2021/09/09 06:51:41;;;;;;;;;;;;;;;23.21;58.08;100647.16;5036107;28;989;-68
2021/09/09 06:54:06;;;;;;;;;;;;;;;23.29;60.27;100644.31;5036127;28;1882;-68
2021/09/09 06:56:31;;;;;;;;;;;;;;;23.36;66.88;100645.28;5035274;28;788;-68
2021/09/09 06:58:56;;;;;;;;;;;;;;;23.35;65.58;100640.88;5051120;28;1810;-68
2021/09/09 07:01:21;;;;;;;;;;;;;;;23.25;62.17;100636.75;5036672;28;1585;-69
2021/09/09 07:03:46;;;;;;;;;;;;;;;23.26;60.77;100635.72;5019441;28;1758;-70
2021/09/09 07:06:11;;;;;;;;;;;;;;;23.33;61.94;100639.34;5026085;28;1691;-70
2021/09/09 07:08:36;;;;;;;;;;;;;;;23.41;61.18;100631.13;5040354;28;1476;-69
2021/09/09 07:11:01;;;;;;;;;;;;;;;23.29;60.38;100638.88;5042738;28;1473;-69
2021/09/09 07:13:28;;;;;;;;;;;;;;;23.36;59.72;100641.69;5043541;28;1894;-68
2021/09/09 07:15:55;;;;;;;;;;;;;;;23.38;59.42;100645.94;5048833;28;1652;-68
2021/09/09 07:18:20;;;;;;;;;;;;;;;23.37;59.50;100644.25;5047342;28;1680;-68
2021/09/09 07:20:45;;;;;;;;;;;;;;;23.40;58.89;100645.75;5041154;28;1886;-68
2021/09/09 07:23:10;;;;;;;;;;;;;;;23.37;58.46;100635.25;5036038;28;1757;-68
2021/09/09 07:25:35;;;;;;;;;;;;;;;23.39;58.37;100644.06;5035994;28;914;-69
2021/09/09 07:28:01;;;;;;;;;;;;;;;23.33;58.17;100640.19;5035981;28;1244;-68
2021/09/09 07:30:26;;;;;;;;;;;;;;;23.40;58.00;100643.88;5035788;28;838;-68
2021/09/09 07:32:51;;;;;;;;;;;;;;;23.46;57.94;100645.00;5048445;28;2263;-68
2021/09/09 07:35:16;;;;;;;;;;;;;;;23.38;58.10;100648.66;5053554;28;1523;-68
2021/09/09 07:37:41;;;;;;;;;;;;;;;23.36;58.08;100649.88;5043710;28;1332;-68
2021/09/09 07:40:06;;;;;;;;;;;;;;;23.35;58.10;100664.50;5041134;28;1368;-68
2021/09/09 07:42:31;;;;;;;;;;;;;;;23.29;58.01;100663.34;5043046;28;1590;-68
2021/09/09 07:44:56;;;;;;;;;;;;;;;23.24;58.23;100665.81;5048223;28;1801;-68
2021/09/09 07:47:21;;;;;;;;;;;;;;;23.25;58.28;100675.66;5037470;28;1529;-68
2021/09/09 07:49:46;;;;;;;;;;;;;;;23.23;58.00;100672.28;5035622;28;1896;-69
2021/09/09 07:52:12;;;;;;;;;;;;;;;23.09;57.87;100671.22;5035605;28;1713;-69
2021/09/09 07:54:37;;;;;;;;;;;;;;;23.11;58.39;100673.78;5035377;28;1895;-69
2021/09/09 07:57:02;;;;;;;;;;;;;;;23.19;58.61;100681.81;5035648;28;1020;-69
2021/09/09 07:59:27;;;;;;;;;;;;;;;23.26;57.76;100671.06;5035891;28;823;-69
2021/09/09 08:01:52;;;;;;;;;;;;;;;23.33;57.85;100675.56;5035788;28;990;-68
2021/09/09 08:04:17;;;;;;;;;;;;;;;23.43;57.61;100669.84;5035006;28;1033;-69
2021/09/09 08:06:43;;;;;;;;;;;;;;;23.47;57.51;100655.66;5032581;28;1556;-69
2021/09/09 08:09:08;;;;;;;;;;;;;;;23.47;57.04;100662.97;5050498;28;1413;-69
2021/09/09 08:11:33;;;;;;;;;;;;;;;23.45;57.04;100665.06;5054885;28;1052;-69
2021/09/09 08:13:58;;;;;;;;;;;;;;;23.49;56.76;100660.91;5055058;28;1910;-69
2021/09/09 08:16:23;;;;;;;;;;;;;;;23.54;56.71;100661.25;5055070;28;890;-69
2021/09/09 08:18:48;;;;;;;;;;;;;;;23.57;56.61;100657.31;5054003;28;1253;-69
2021/09/09 08:21:15;;;;;;;;;;;;;;;23.58;56.58;100653.56;5044526;28;1319;-68
2021/09/09 08:23:40;;;;;;;;;;;;;;;23.62;56.59;100652.16;5044910;28;1414;-68
2021/09/09 08:26:05;;;;;;;;;;;;;;;23.68;56.44;100652.22;5038720;28;1339;-67
2021/09/09 08:28:30;;;;;;;;;;;;;;;23.70;55.89;100666.47;5034742;28;1140;-67
2021/09/09 08:30:55;;;;;;;;;;;;;;;23.70;55.66;100661.03;5034773;28;2036;-68
2021/09/09 08:33:20;;;;;;;;;;;;;;;23.69;56.47;100666.66;5037149;28;1967;-68
2021/09/09 08:35:45;;;;;;;;;;;;;;;23.69;56.08;100672.09;5046220;28;1378;-68
2021/09/09 08:38:10;;;;;;;;;;;;;;;23.72;55.79;100671.75;5044177;28;1633;-68
2021/09/09 08:40:36;;;;;;;;;;;;;;;23.75;56.29;100671.38;5044373;28;1730;-68
2021/09/09 08:43:01;;;;;;;;;;;;;;;23.77;55.71;100658.41;5045115;28;1645;-68
2021/09/09 08:45:27;;;;;;;;;;;;;;;23.80;55.16;100658.88;5038791;28;1326;-68
2021/09/09 08:47:52;;;;;;;;;;;;;;;23.80;55.41;100664.31;5047047;28;1298;-68
2021/09/09 08:50:17;;;;;;;;;;;;;;;23.83;55.13;100658.47;5038751;28;1440;-68
2021/09/09 08:52:42;;;;;;;;;;;;;;;23.84;54.83;100656.59;5038161;28;1300;-68
2021/09/09 08:55:07;;;;;;;;;;;;;;;23.83;55.06;100652.19;5036476;28;1941;-69
2021/09/09 08:57:32;;;;;;;;;;;;;;;23.85;55.06;100650.97;5035438;28;1926;-68
2021/09/09 08:59:57;;;;;;;;;;;;;;;23.87;54.85;100653.50;5034959;28;796;-68
2021/09/09 09:02:22;;;;;;;;;;;;;;;23.84;54.92;100662.03;5037174;28;1186;-68
2021/09/09 09:04:47;;;;;;;;;;;;;;;23.85;55.11;100667.31;5042548;28;1729;-68
2021/09/09 09:07:12;;;;;;;;;;;;;;;23.83;55.45;100668.53;5041933;28;1295;-68
2021/09/09 09:09:37;;;;;;;;;;;;;;;23.77;55.77;100672.88;5034782;28;1052;-68
2021/09/09 09:12:03;;;;;;;;;;;;;;;23.65;55.64;100666.19;5034281;28;1070;-68
2021/09/09 09:14:28;;;;;;;;;;;;;;;23.55;56.27;100665.66;5035052;28;1953;-68
2021/09/09 09:16:53;;;;;;;;;;;;;;;23.68;56.07;100664.97;5034865;28;1816;-68
2021/09/09 09:19:18;;;;;;;;;;;;;;;23.73;55.59;100674.28;5036374;28;927;-68
2021/09/09 09:21:44;;;;;;;;;;;;;;;23.63;56.19;100668.28;5038231;28;1041;-68
2021/09/09 09:24:09;;;;;;;;;;;;;;;23.66;56.04;100677.94;5038857;28;816;-68
2021/09/09 09:26:34;;;;;;;;;;;;;;;23.57;56.30;100677.19;5041813;28;1589;-69
2021/09/09 09:28:59;;;;;;;;;;;;;;;23.57;56.52;100679.06;5050562;28;1513;-68
2021/09/09 09:31:25;;;;;;;;;;;;;;;23.54;56.51;100680.28;5046292;28;1601;-68
2021/09/09 09:33:56;;;;;;;;;;;;;;;23.47;56.33;100684.75;5038469;28;1902;-68
2021/09/09 09:36:21;;;;;;;;;;;;;;;23.54;56.30;100680.28;5038148;28;917;-68
2021/09/09 09:38:46;;;;;;;;;;;;;;;23.47;56.59;100682.03;5019949;28;851;-68
2021/09/09 09:41:12;;;;;;;;;;;;;;;23.48;56.81;100689.16;5037796;28;810;-68
2021/09/09 09:43:37;;;;;;;;;;;;;;;23.57;56.35;100688.06;5037800;28;792;-68
2021/09/09 09:46:04;;;;;;;;;;;;;;;23.64;56.22;100686.31;5045369;28;1367;-68
2021/09/09 09:48:30;;;;;;;;;;;;;;;23.67;56.10;100687.78;5047912;28;1489;-68
2021/09/09 09:50:55;;;;;;;;;;;;;;;23.67;56.54;100680.47;5044911;28;1267;-68
2021/09/09 09:53:21;;;;;;;;;;;;;;;23.73;56.13;100671.56;5047091;28;1894;-68
2021/09/09 09:55:46;;;;;;;;;;;;;;;23.76;56.58;100673.06;5029272;28;1522;-69
2021/09/09 09:58:11;;;;;;;;;;;;;;;23.77;56.25;100670.16;5045182;28;1506;-69
2021/09/09 10:00:36;;;;;;;;;;;;;;;23.79;56.14;100670.81;5047018;28;1327;-68
2021/09/09 10:03:02;;;;;;;;;;;;;;;23.76;56.43;100668.47;5045677;28;1267;-69
2021/09/09 10:05:27;;;;;;;;;;;;;;;23.70;56.50;100680.09;5048079;28;1744;-68
2021/09/09 10:07:52;;;;;;;;;;;;;;;23.69;56.65;100683.84;5046269;28;1236;-68
2021/09/09 10:10:17;;;;;;;;;;;;;;;23.72;56.77;100674.47;5047738;28;1315;-68
2021/09/09 10:12:44;;;;;;;;;;;;;;;23.73;56.71;100685.16;5044793;28;1591;-68
2021/09/09 10:15:12;;;;;;;;;;;;;;;23.72;56.76;100686.19;5027017;28;1890;-68
2021/09/09 10:17:37;;;;;;;;;;;;;;;23.71;56.45;100681.78;5036880;28;787;-68
2021/09/09 10:20:02;;;;;;;;;;;;;;;23.73;56.70;100681.59;5043832;28;1645;-68
2021/09/09 10:22:27;;;;;;;;;;;;;;;23.76;56.27;100679.34;5054175;28;1757;-68
2021/09/09 10:24:52;;;;;;;;;;;;;;;23.78;56.11;100668.28;5055954;28;1843;-68
2021/09/09 10:27:17;;;;;;;;;;;;;;;23.78;56.51;100671.00;5056741;28;1872;-68
2021/09/09 10:29:43;;;;;;;;;;;;;;;23.78;55.99;100671.84;5056798;28;907;-68
2021/09/09 10:32:08;;;;;;;;;;;;;;;23.75;56.74;100665.91;5057018;28;854;-69
2021/09/09 10:34:33;;;;;;;;;;;;;;;23.75;56.48;100661.31;5057355;28;1910;-68
2021/09/09 10:36:58;;;;;;;;;;;;;;;23.77;56.52;100669.31;5052708;28;1153;-68
2021/09/09 10:39:24;;;;;;;;;;;;;;;23.75;57.07;100669.50;5056589;28;1917;-66
2021/09/09 10:41:49;;;;;;;;;;;;;;;23.79;56.34;100678.97;5037161;28;1508;-66
2021/09/09 10:44:14;;;;;;;;;;;;;;;23.81;56.40;100678.78;5019457;28;1645;-66
2021/09/09 10:46:39;;;;;;;;;;;;;;;23.80;57.00;100677.09;5036656;28;911;-66
2021/09/09 10:49:04;;;;;;;;;;;;;;;23.81;56.52;100676.06;5036883;28;882;-66
2021/09/09 10:51:30;;;;;;;;;;;;;;;23.84;56.85;100668.34;5036892;28;927;-66
2021/09/09 10:53:55;;;;;;;;;;;;;;;23.84;56.99;100676.50;5037048;28;1882;-66
2021/09/09 10:56:20;;;;;;;;;;;;;;;23.83;57.10;100663.91;5036574;28;1868;-66
2021/09/09 10:58:45;;;;;;;;;;;;;;;23.83;57.30;100661.19;5037057;28;985;-66
2021/09/09 11:01:10;;;;;;;;;;;;;;;23.83;57.11;100654.91;5036587;28;1049;-66
2021/09/09 11:03:35;;;;;;;;;;;;;;;23.84;57.05;100654.72;5036319;28;910;-66
2021/09/09 11:06:00;;;;;;;;;;;;;;;23.86;57.18;100647.22;5036418;28;918;-66
2021/09/09 11:08:25;;;;;;;;;;;;;;;23.95;56.97;100645.25;5035979;28;1005;-66
2021/09/09 11:10:50;;;;;;;;;;;;;;;23.93;57.20;100641.88;5052776;28;1408;-65
2021/09/09 11:13:15;;;;;;;;;;;;;;;23.97;57.30;100636.88;5052573;28;2021;-66
2021/09/09 11:15:40;;;;;;;;;;;;;;;24.01;56.79;100643.59;5032265;28;1170;-66
2021/09/09 11:18:07;;;;;;;;;;;;;;;24.00;56.94;100641.94;5036000;28;1313;-66
2021/09/09 11:20:32;;;;;;;;;;;;;;;24.00;56.67;100639.22;5036172;28;783;-66
2021/09/09 11:22:57;;;;;;;;;;;;;;;24.07;56.98;100638.25;5035795;28;850;-69
2021/09/09 11:25:22;;;;;;;;;;;;;;;24.11;57.17;100641.44;5035784;28;1056;-66
2021/09/09 11:27:47;;;;;;;;;;;;;;;24.10;56.94;100642.47;5053549;28;1200;-66
2021/09/09 11:30:12;;;;;;;;;;;;;;;24.04;57.29;100644.06;5054071;28;1779;-67
2021/09/09 11:32:37;;;;;;;;;;;;;;;24.06;57.66;100654.78;5035729;28;1787;-67
2021/09/09 11:35:03;;;;;;;;;;;;;;;24.07;57.32;100651.88;5042405;28;2049;-67
2021/09/09 11:37:28;;;;;;;;;;;;;;;24.12;57.68;100656.75;5055351;28;993;-66
2021/09/09 11:39:53;;;;;;;;;;;;;;;24.10;57.77;100661.53;5055226;28;858;-67
2021/09/09 11:42:18;;;;;;;;;;;;;;;24.09;57.98;100657.13;5054780;28;1052;-67
2021/09/09 11:44:43;;;;;;;;;;;;;;;24.09;57.78;100668.00;5055562;28;977;-67
2021/09/09 11:47:08;;;;;;;;;;;;;;;24.13;58.23;100664.72;5052816;28;1606;-67
2021/09/09 11:49:33;;;;;;;;;;;;;;;24.15;58.12;100661.81;5035239;28;803;-67
2021/09/09 11:51:58;;;;;;;;;;;;;;;24.17;57.85;100659.75;5035230;28;1022;-67
2021/09/09 11:54:24;;;;;;;;;;;;;;;24.16;58.20;100663.50;5035206;28;1953;-67
2021/09/09 11:56:49;;;;;;;;;;;;;;;24.12;57.91;100659.47;5035188;28;862;-67
2021/09/09 11:59:18;;;;;;;;;;;;;;;24.17;57.92;100654.28;5035431;28;1002;-67
2021/09/09 12:01:43;;;;;;;;;;;;;;;24.22;57.87;100663.56;5035072;28;775;-67
2021/09/09 12:04:08;;;;;;;;;;;;;;;24.19;57.95;100654.91;5035570;28;1842;-67
2021/09/09 12:06:33;;;;;;;;;;;;;;;24.18;58.08;100653.25;5054827;28;898;-67
2021/09/09 12:08:58;;;;;;;;;;;;;;;24.27;58.25;100654.00;5054794;28;779;-67
2021/09/09 12:11:23;;;;;;;;;;;;;;;24.22;58.05;100646.38;5054991;28;804;-67
2021/09/09 12:13:48;;;;;;;;;;;;;;;24.28;58.48;100655.69;5054749;28;1878;-67
2021/09/09 12:16:14;;;;;;;;;;;;;;;24.33;58.18;100661.41;5055083;28;855;-67
2021/09/09 12:18:39;;;;;;;;;;;;;;;24.33;58.52;100654.09;5055152;28;810;-67
2021/09/09 12:21:04;;;;;;;;;;;;;;;24.28;58.49;100656.53;5054721;28;820;-67
2021/09/09 12:23:29;;;;;;;;;;;;;;;24.28;58.71;100653.81;5037235;28;2079;-67
2021/09/09 12:25:54;;;;;;;;;;;;;;;24.33;58.25;100655.97;5034731;28;874;-67
2021/09/09 12:28:20;;;;;;;;;;;;;;;24.35;58.38;100659.34;5034536;28;1201;-67
2021/09/09 12:30:45;;;;;;;;;;;;;;;24.44;58.85;100650.84;5036625;28;1143;-67
2021/09/09 12:33:11;;;;;;;;;;;;;;;24.44;58.82;100660.88;5036487;28;1918;-67
2021/09/09 12:35:36;;;;;;;;;;;;;;;24.47;58.53;100657.78;5051617;28;1215;-67
2021/09/09 12:38:01;;;;;;;;;;;;;;;24.49;58.76;100653.81;5043892;28;1208;-67